sensor_id;sensor_type;location;lat;lon;timestamp;P1;durP1;ratioP1;P2;durP2;ratioP2
37131;SDS011;23035;50.032;21.978;2023-04-24T00:03:05;13.40;;;5.82;;
37131;SDS011;23035;50.032;21.978;2023-04-24T00:08:10;8.43;;;5.53;;
37131;SDS011;23035;50.032;21.978;2023-04-24T00:13:14;9.73;;;5.40;;
37131;SDS011;23035;50.032;21.978;2023-04-24T00:18:18;7.25;;;4.70;;
37131;SDS011;23035;50.032;21.978;2023-04-24T00:23:24;10.10;;;5.63;;
37131;SDS011;23035;50.032;21.978;2023-04-24T00:28:28;10.60;;;6.57;;
37131;SDS011;23035;50.032;21.978;2023-04-24T00:33:32;12.73;;;6.13;;
37131;SDS011;23035;50.032;21.978;2023-04-24T00:38:37;12.30;;;6.82;;
37131;SDS011;23035;50.032;21.978;2023-04-24T00:43:41;12.98;;;6.82;;
37131;SDS011;23035;50.032;21.978;2023-04-24T00:48:46;14.90;;;7.03;;
37131;SDS011;23035;50.032;21.978;2023-04-24T00:53:51;13.68;;;6.68;;
37131;SDS011;23035;50.032;21.978;2023-04-24T00:58:55;18.35;;;6.00;;
37131;SDS011;23035;50.032;21.978;2023-04-24T01:03:59;15.00;;;6.55;;
37131;SDS011;23035;50.032;21.978;2023-04-24T01:09:06;18.87;;;6.70;;
37131;SDS011;23035;50.032;21.978;2023-04-24T01:14:11;12.23;;;5.78;;
37131;SDS011;23035;50.032;21.978;2023-04-24T01:19:16;10.30;;;5.30;;
37131;SDS011;23035;50.032;21.978;2023-04-24T01:24:23;12.32;;;5.60;;
37131;SDS011;23035;50.032;21.978;2023-04-24T01:29:27;11.80;;;6.72;;
37131;SDS011;23035;50.032;21.978;2023-04-24T01:34:32;8.35;;;4.95;;
37131;SDS011;23035;50.032;21.978;2023-04-24T01:39:37;11.68;;;5.28;;
37131;SDS011;23035;50.032;21.978;2023-04-24T01:44:42;15.95;;;6.07;;
37131;SDS011;23035;50.032;21.978;2023-04-24T01:49:46;15.55;;;6.53;;
37131;SDS011;23035;50.032;21.978;2023-04-24T01:54:53;11.73;;;6.07;;
37131;SDS011;23035;50.032;21.978;2023-04-24T01:59:58;7.95;;;5.15;;
37131;SDS011;23035;50.032;21.978;2023-04-24T02:05:05;9.73;;;5.65;;
37131;SDS011;23035;50.032;21.978;2023-04-24T02:10:12;11.73;;;6.68;;
37131;SDS011;23035;50.032;21.978;2023-04-24T02:15:17;12.15;;;6.03;;
37131;SDS011;23035;50.032;21.978;2023-04-24T02:20:21;13.48;;;5.53;;
37131;SDS011;23035;50.032;21.978;2023-04-24T02:25:26;13.10;;;5.90;;
37131;SDS011;23035;50.032;21.978;2023-04-24T02:30:30;14.93;;;5.85;;
37131;SDS011;23035;50.032;21.978;2023-04-24T02:35:34;16.33;;;6.53;;
37131;SDS011;23035;50.032;21.978;2023-04-24T02:40:40;16.67;;;6.65;;
37131;SDS011;23035;50.032;21.978;2023-04-24T02:45:45;13.18;;;6.05;;
37131;SDS011;23035;50.032;21.978;2023-04-24T02:50:49;12.23;;;5.75;;
37131;SDS011;23035;50.032;21.978;2023-04-24T02:55:55;14.05;;;6.00;;
37131;SDS011;23035;50.032;21.978;2023-04-24T03:00:59;8.80;;;5.15;;
37131;SDS011;23035;50.032;21.978;2023-04-24T03:06:04;12.20;;;5.32;;
37131;SDS011;23035;50.032;21.978;2023-04-24T03:11:14;7.63;;;4.75;;
37131;SDS011;23035;50.032;21.978;2023-04-24T03:16:21;11.63;;;5.22;;
37131;SDS011;23035;50.032;21.978;2023-04-24T03:21:31;12.93;;;5.38;;
37131;SDS011;23035;50.032;21.978;2023-04-24T03:26:39;8.77;;;5.20;;
37131;SDS011;23035;50.032;21.978;2023-04-24T03:32:01;11.07;;;5.82;;
37131;SDS011;23035;50.032;21.978;2023-04-24T03:37:08;9.52;;;6.18;;
37131;SDS011;23035;50.032;21.978;2023-04-24T03:42:18;17.20;;;5.80;;
37131;SDS011;23035;50.032;21.978;2023-04-24T03:47:29;24.02;;;6.55;;
37131;SDS011;23035;50.032;21.978;2023-04-24T03:52:36;19.23;;;6.50;;
37131;SDS011;23035;50.032;21.978;2023-04-24T03:57:42;25.30;;;6.72;;
37131;SDS011;23035;50.032;21.978;2023-04-24T04:02:54;18.05;;;7.78;;
37131;SDS011;23035;50.032;21.978;2023-04-24T04:07:59;11.88;;;6.30;;
37131;SDS011;23035;50.032;21.978;2023-04-24T04:13:05;13.30;;;5.93;;
37131;SDS011;23035;50.032;21.978;2023-04-24T04:18:11;19.20;;;6.60;;
37131;SDS011;23035;50.032;21.978;2023-04-24T04:23:15;13.77;;;6.70;;
37131;SDS011;23035;50.032;21.978;2023-04-24T04:28:40;11.68;;;6.93;;
37131;SDS011;23035;50.032;21.978;2023-04-24T04:33:44;15.70;;;6.85;;
37131;SDS011;23035;50.032;21.978;2023-04-24T04:38:52;16.17;;;7.20;;
37131;SDS011;23035;50.032;21.978;2023-04-24T04:44:16;20.83;;;7.07;;
37131;SDS011;23035;50.032;21.978;2023-04-24T04:49:21;19.40;;;6.82;;
37131;SDS011;23035;50.032;21.978;2023-04-24T04:54:26;11.30;;;6.47;;
37131;SDS011;23035;50.032;21.978;2023-04-24T04:59:32;19.83;;;8.50;;
37131;SDS011;23035;50.032;21.978;2023-04-24T05:04:41;14.32;;;7.43;;
37131;SDS011;23035;50.032;21.978;2023-04-24T05:09:45;12.70;;;6.38;;
37131;SDS011;23035;50.032;21.978;2023-04-24T05:14:51;17.27;;;6.25;;
37131;SDS011;23035;50.032;21.978;2023-04-24T05:19:55;14.70;;;6.50;;
37131;SDS011;23035;50.032;21.978;2023-04-24T05:24:59;15.32;;;6.43;;
37131;SDS011;23035;50.032;21.978;2023-04-24T05:30:05;11.90;;;6.07;;
37131;SDS011;23035;50.032;21.978;2023-04-24T05:35:11;16.83;;;6.07;;
37131;SDS011;23035;50.032;21.978;2023-04-24T05:40:15;11.73;;;6.63;;
37131;SDS011;23035;50.032;21.978;2023-04-24T05:45:20;16.27;;;6.90;;
37131;SDS011;23035;50.032;21.978;2023-04-24T05:50:25;13.90;;;5.85;;
37131;SDS011;23035;50.032;21.978;2023-04-24T05:55:29;10.48;;;5.70;;
37131;SDS011;23035;50.032;21.978;2023-04-24T06:00:35;10.73;;;6.05;;
37131;SDS011;23035;50.032;21.978;2023-04-24T06:05:42;14.88;;;7.05;;
37131;SDS011;23035;50.032;21.978;2023-04-24T06:10:47;6.82;;;4.88;;
37131;SDS011;23035;50.032;21.978;2023-04-24T06:15:55;12.02;;;6.22;;
37131;SDS011;23035;50.032;21.978;2023-04-24T06:21:11;12.98;;;5.20;;
37131;SDS011;23035;50.032;21.978;2023-04-24T06:26:15;15.13;;;4.68;;
37131;SDS011;23035;50.032;21.978;2023-04-24T06:31:21;13.13;;;4.40;;
37131;SDS011;23035;50.032;21.978;2023-04-24T06:36:25;13.95;;;5.25;;
37131;SDS011;23035;50.032;21.978;2023-04-24T06:41:30;14.60;;;4.37;;
37131;SDS011;23035;50.032;21.978;2023-04-24T06:46:35;10.65;;;5.18;;
37131;SDS011;23035;50.032;21.978;2023-04-24T06:51:42;10.45;;;4.63;;
37131;SDS011;23035;50.032;21.978;2023-04-24T06:56:46;9.15;;;4.18;;
37131;SDS011;23035;50.032;21.978;2023-04-24T07:01:53;17.95;;;5.70;;
37131;SDS011;23035;50.032;21.978;2023-04-24T07:06:58;13.95;;;4.90;;
37131;SDS011;23035;50.032;21.978;2023-04-24T07:12:03;23.33;;;4.90;;
37131;SDS011;23035;50.032;21.978;2023-04-24T07:17:08;7.28;;;4.30;;
37131;SDS011;23035;50.032;21.978;2023-04-24T07:22:12;7.28;;;3.72;;
37131;SDS011;23035;50.032;21.978;2023-04-24T07:27:19;11.20;;;3.97;;
37131;SDS011;23035;50.032;21.978;2023-04-24T07:32:24;8.88;;;4.57;;
37131;SDS011;23035;50.032;21.978;2023-04-24T07:37:28;11.40;;;5.05;;
37131;SDS011;23035;50.032;21.978;2023-04-24T07:42:32;11.50;;;4.45;;
37131;SDS011;23035;50.032;21.978;2023-04-24T07:47:38;6.50;;;4.38;;
37131;SDS011;23035;50.032;21.978;2023-04-24T07:52:42;15.32;;;5.68;;
37131;SDS011;23035;50.032;21.978;2023-04-24T07:57:46;15.00;;;5.97;;
37131;SDS011;23035;50.032;21.978;2023-04-24T08:02:52;11.70;;;4.85;;
37131;SDS011;23035;50.032;21.978;2023-04-24T08:07:58;9.93;;;4.15;;
37131;SDS011;23035;50.032;21.978;2023-04-24T08:13:02;9.48;;;5.05;;
37131;SDS011;23035;50.032;21.978;2023-04-24T08:18:07;8.38;;;4.82;;
37131;SDS011;23035;50.032;21.978;2023-04-24T08:23:14;10.30;;;5.15;;
37131;SDS011;23035;50.032;21.978;2023-04-24T08:28:18;9.55;;;3.85;;
37131;SDS011;23035;50.032;21.978;2023-04-24T08:33:24;8.27;;;5.10;;
37131;SDS011;23035;50.032;21.978;2023-04-24T08:43:32;11.05;;;4.15;;
37131;SDS011;23035;50.032;21.978;2023-04-24T08:48:40;10.65;;;4.18;;
37131;SDS011;23035;50.032;21.978;2023-04-24T08:53:44;6.43;;;3.78;;
37131;SDS011;23035;50.032;21.978;2023-04-24T09:03:55;9.40;;;4.50;;
37131;SDS011;23035;50.032;21.978;2023-04-24T09:09:00;10.32;;;4.35;;
37131;SDS011;23035;50.032;21.978;2023-04-24T09:19:11;11.30;;;4.00;;
37131;SDS011;23035;50.032;21.978;2023-04-24T09:24:16;12.32;;;4.25;;
37131;SDS011;23035;50.032;21.978;2023-04-24T09:29:22;7.60;;;4.00;;
37131;SDS011;23035;50.032;21.978;2023-04-24T09:34:28;9.25;;;3.70;;
37131;SDS011;23035;50.032;21.978;2023-04-24T09:39:32;12.57;;;4.20;;
37131;SDS011;23035;50.032;21.978;2023-04-24T09:44:42;7.97;;;3.78;;
37131;SDS011;23035;50.032;21.978;2023-04-24T09:49:47;11.63;;;4.22;;
37131;SDS011;23035;50.032;21.978;2023-04-24T09:54:52;11.65;;;3.78;;
37131;SDS011;23035;50.032;21.978;2023-04-24T10:05:03;14.05;;;3.85;;
37131;SDS011;23035;50.032;21.978;2023-04-24T10:10:08;8.82;;;3.90;;
37131;SDS011;23035;50.032;21.978;2023-04-24T10:15:12;10.35;;;4.57;;
37131;SDS011;23035;50.032;21.978;2023-04-24T10:20:23;7.32;;;3.47;;
37131;SDS011;23035;50.032;21.978;2023-04-24T10:25:29;5.10;;;3.40;;
37131;SDS011;23035;50.032;21.978;2023-04-24T10:30:35;11.18;;;4.03;;
37131;SDS011;23035;50.032;21.978;2023-04-24T10:35:42;7.13;;;3.53;;
37131;SDS011;23035;50.032;21.978;2023-04-24T10:40:51;8.60;;;3.55;;
37131;SDS011;23035;50.032;21.978;2023-04-24T10:46:01;10.20;;;3.45;;
37131;SDS011;23035;50.032;21.978;2023-04-24T10:51:10;4.82;;;3.35;;
37131;SDS011;23035;50.032;21.978;2023-04-24T10:56:15;10.48;;;4.38;;
37131;SDS011;23035;50.032;21.978;2023-04-24T11:01:23;7.32;;;3.80;;
37131;SDS011;23035;50.032;21.978;2023-04-24T11:06:31;6.57;;;4.10;;
37131;SDS011;23035;50.032;21.978;2023-04-24T11:11:37;9.68;;;3.88;;
37131;SDS011;23035;50.032;21.978;2023-04-24T11:16:51;10.52;;;4.15;;
37131;SDS011;23035;50.032;21.978;2023-04-24T11:21:59;7.93;;;3.60;;
37131;SDS011;23035;50.032;21.978;2023-04-24T11:27:06;6.38;;;4.00;;
37131;SDS011;23035;50.032;21.978;2023-04-24T11:32:22;9.63;;;4.05;;
37131;SDS011;23035;50.032;21.978;2023-04-24T11:37:33;11.27;;;3.47;;
37131;SDS011;23035;50.032;21.978;2023-04-24T11:42:39;6.35;;;3.40;;
37131;SDS011;23035;50.032;21.978;2023-04-24T11:47:44;9.43;;;3.85;;
37131;SDS011;23035;50.032;21.978;2023-04-24T11:52:51;14.07;;;4.00;;
37131;SDS011;23035;50.032;21.978;2023-04-24T11:57:55;5.07;;;3.72;;
37131;SDS011;23035;50.032;21.978;2023-04-24T12:03:04;7.53;;;3.65;;
37131;SDS011;23035;50.032;21.978;2023-04-24T12:08:11;8.85;;;3.70;;
37131;SDS011;23035;50.032;21.978;2023-04-24T12:13:15;4.15;;;3.10;;
37131;SDS011;23035;50.032;21.978;2023-04-24T12:18:22;6.78;;;3.53;;
37131;SDS011;23035;50.032;21.978;2023-04-24T12:23:36;5.82;;;3.40;;
37131;SDS011;23035;50.032;21.978;2023-04-24T12:33:44;6.15;;;3.42;;
37131;SDS011;23035;50.032;21.978;2023-04-24T12:38:52;8.95;;;3.42;;
37131;SDS011;23035;50.032;21.978;2023-04-24T12:43:56;4.80;;;3.60;;
37131;SDS011;23035;50.032;21.978;2023-04-24T12:49:00;9.93;;;5.45;;
37131;SDS011;23035;50.032;21.978;2023-04-24T12:54:06;8.32;;;4.70;;
37131;SDS011;23035;50.032;21.978;2023-04-24T12:59:10;6.97;;;3.15;;
37131;SDS011;23035;50.032;21.978;2023-04-24T13:04:15;7.03;;;3.30;;
37131;SDS011;23035;50.032;21.978;2023-04-24T13:09:21;6.68;;;3.53;;
37131;SDS011;23035;50.032;21.978;2023-04-24T13:14:26;8.43;;;3.30;;
37131;SDS011;23035;50.032;21.978;2023-04-24T13:19:34;5.18;;;3.40;;
37131;SDS011;23035;50.032;21.978;2023-04-24T13:24:41;6.97;;;3.55;;
37131;SDS011;23035;50.032;21.978;2023-04-24T13:29:45;5.93;;;3.10;;
37131;SDS011;23035;50.032;21.978;2023-04-24T13:34:49;6.07;;;2.97;;
37131;SDS011;23035;50.032;21.978;2023-04-24T13:39:55;7.57;;;3.70;;
37131;SDS011;23035;50.032;21.978;2023-04-24T13:44:59;13.52;;;3.33;;
37131;SDS011;23035;50.032;21.978;2023-04-24T13:50:15;5.13;;;3.47;;
37131;SDS011;23035;50.032;21.978;2023-04-24T13:55:20;6.38;;;3.60;;
37131;SDS011;23035;50.032;21.978;2023-04-24T14:00:24;8.73;;;4.00;;
37131;SDS011;23035;50.032;21.978;2023-04-24T14:05:29;7.57;;;3.03;;
37131;SDS011;23035;50.032;21.978;2023-04-24T14:10:34;5.57;;;3.55;;
37131;SDS011;23035;50.032;21.978;2023-04-24T14:15:38;6.28;;;3.63;;
37131;SDS011;23035;50.032;21.978;2023-04-24T14:20:42;15.65;;;4.18;;
37131;SDS011;23035;50.032;21.978;2023-04-24T14:25:48;16.55;;;5.13;;
37131;SDS011;23035;50.032;21.978;2023-04-24T14:30:54;8.13;;;4.10;;
37131;SDS011;23035;50.032;21.978;2023-04-24T14:35:58;9.57;;;3.95;;
37131;SDS011;23035;50.032;21.978;2023-04-24T14:41:06;10.75;;;4.22;;
37131;SDS011;23035;50.032;21.978;2023-04-24T14:46:15;10.82;;;3.92;;
37131;SDS011;23035;50.032;21.978;2023-04-24T14:51:19;11.48;;;3.55;;
37131;SDS011;23035;50.032;21.978;2023-04-24T14:56:25;10.52;;;3.85;;
37131;SDS011;23035;50.032;21.978;2023-04-24T15:01:29;8.20;;;4.03;;
37131;SDS011;23035;50.032;21.978;2023-04-24T15:06:33;7.40;;;4.00;;
37131;SDS011;23035;50.032;21.978;2023-04-24T15:11:38;11.50;;;4.07;;
37131;SDS011;23035;50.032;21.978;2023-04-24T15:16:42;15.65;;;4.50;;
37131;SDS011;23035;50.032;21.978;2023-04-24T15:21:47;12.40;;;4.45;;
37131;SDS011;23035;50.032;21.978;2023-04-24T15:26:52;16.27;;;4.85;;
37131;SDS011;23035;50.032;21.978;2023-04-24T15:32:00;10.20;;;5.35;;
37131;SDS011;23035;50.032;21.978;2023-04-24T15:37:04;9.40;;;4.28;;
37131;SDS011;23035;50.032;21.978;2023-04-24T15:42:09;7.30;;;5.00;;
37131;SDS011;23035;50.032;21.978;2023-04-24T15:47:13;12.85;;;4.82;;
37131;SDS011;23035;50.032;21.978;2023-04-24T15:52:17;16.05;;;6.10;;
37131;SDS011;23035;50.032;21.978;2023-04-24T15:57:23;13.95;;;7.57;;
37131;SDS011;23035;50.032;21.978;2023-04-24T16:02:27;24.60;;;11.32;;
37131;SDS011;23035;50.032;21.978;2023-04-24T16:07:33;35.35;;;16.95;;
37131;SDS011;23035;50.032;21.978;2023-04-24T16:12:38;31.58;;;13.30;;
37131;SDS011;23035;50.032;21.978;2023-04-24T16:17:42;29.50;;;14.57;;
37131;SDS011;23035;50.032;21.978;2023-04-24T16:22:47;66.13;;;30.38;;
37131;SDS011;23035;50.032;21.978;2023-04-24T16:27:52;14.05;;;5.85;;
37131;SDS011;23035;50.032;21.978;2023-04-24T16:32:58;15.52;;;6.50;;
37131;SDS011;23035;50.032;21.978;2023-04-24T16:38:02;18.50;;;6.03;;
37131;SDS011;23035;50.032;21.978;2023-04-24T16:43:08;20.73;;;9.32;;
37131;SDS011;23035;50.032;21.978;2023-04-24T16:48:12;18.48;;;7.32;;
37131;SDS011;23035;50.032;21.978;2023-04-24T16:53:16;16.13;;;7.65;;
37131;SDS011;23035;50.032;21.978;2023-04-24T16:58:22;9.20;;;5.25;;
37131;SDS011;23035;50.032;21.978;2023-04-24T17:03:26;48.47;;;20.83;;
37131;SDS011;23035;50.032;21.978;2023-04-24T17:08:30;13.23;;;6.03;;
37131;SDS011;23035;50.032;21.978;2023-04-24T17:13:36;11.93;;;6.53;;
37131;SDS011;23035;50.032;21.978;2023-04-24T17:18:40;12.57;;;6.35;;
37131;SDS011;23035;50.032;21.978;2023-04-24T17:23:44;13.88;;;6.72;;
37131;SDS011;23035;50.032;21.978;2023-04-24T17:28:49;7.18;;;4.93;;
37131;SDS011;23035;50.032;21.978;2023-04-24T17:33:55;8.73;;;5.82;;
37131;SDS011;23035;50.032;21.978;2023-04-24T17:39:00;13.83;;;5.90;;
37131;SDS011;23035;50.032;21.978;2023-04-24T17:44:06;15.15;;;6.85;;
37131;SDS011;23035;50.032;21.978;2023-04-24T17:49:10;12.02;;;6.30;;
37131;SDS011;23035;50.032;21.978;2023-04-24T17:54:14;14.68;;;6.70;;
37131;SDS011;23035;50.032;21.978;2023-04-24T17:59:21;19.03;;;7.57;;
37131;SDS011;23035;50.032;21.978;2023-04-24T18:04:25;10.85;;;6.13;;
37131;SDS011;23035;50.032;21.978;2023-04-24T18:09:29;14.68;;;6.57;;
37131;SDS011;23035;50.032;21.978;2023-04-24T18:14:35;15.70;;;6.68;;
37131;SDS011;23035;50.032;21.978;2023-04-24T18:19:39;10.75;;;7.10;;
37131;SDS011;23035;50.032;21.978;2023-04-24T18:24:43;19.48;;;7.93;;
37131;SDS011;23035;50.032;21.978;2023-04-24T18:29:49;14.23;;;7.93;;
37131;SDS011;23035;50.032;21.978;2023-04-24T18:34:53;20.45;;;7.70;;
37131;SDS011;23035;50.032;21.978;2023-04-24T18:39:57;15.95;;;7.07;;
37131;SDS011;23035;50.032;21.978;2023-04-24T18:45:03;15.50;;;8.07;;
37131;SDS011;23035;50.032;21.978;2023-04-24T18:50:09;15.70;;;7.57;;
37131;SDS011;23035;50.032;21.978;2023-04-24T18:55:13;18.00;;;8.40;;
37131;SDS011;23035;50.032;21.978;2023-04-24T19:00:19;32.13;;;14.98;;
37131;SDS011;23035;50.032;21.978;2023-04-24T19:05:22;40.65;;;20.70;;
37131;SDS011;23035;50.032;21.978;2023-04-24T19:10:27;49.03;;;23.10;;
37131;SDS011;23035;50.032;21.978;2023-04-24T19:15:33;32.13;;;13.25;;
37131;SDS011;23035;50.032;21.978;2023-04-24T19:20:37;20.80;;;9.15;;
37131;SDS011;23035;50.032;21.978;2023-04-24T19:25:41;12.15;;;7.57;;
37131;SDS011;23035;50.032;21.978;2023-04-24T19:30:47;11.18;;;6.55;;
37131;SDS011;23035;50.032;21.978;2023-04-24T19:35:52;11.82;;;6.53;;
37131;SDS011;23035;50.032;21.978;2023-04-24T19:40:59;13.70;;;7.57;;
37131;SDS011;23035;50.032;21.978;2023-04-24T19:46:07;11.98;;;5.90;;
37131;SDS011;23035;50.032;21.978;2023-04-24T19:51:13;12.95;;;6.75;;
37131;SDS011;23035;50.032;21.978;2023-04-24T19:56:17;16.60;;;7.13;;
37131;SDS011;23035;50.032;21.978;2023-04-24T20:01:23;13.30;;;6.40;;
37131;SDS011;23035;50.032;21.978;2023-04-24T20:06:27;11.15;;;6.35;;
37131;SDS011;23035;50.032;21.978;2023-04-24T20:11:31;12.80;;;6.47;;
37131;SDS011;23035;50.032;21.978;2023-04-24T20:16:37;12.40;;;7.10;;
37131;SDS011;23035;50.032;21.978;2023-04-24T20:21:41;11.07;;;5.85;;
37131;SDS011;23035;50.032;21.978;2023-04-24T20:26:46;8.20;;;5.47;;
37131;SDS011;23035;50.032;21.978;2023-04-24T20:31:51;13.15;;;7.45;;
37131;SDS011;23035;50.032;21.978;2023-04-24T20:36:55;11.10;;;6.55;;
37131;SDS011;23035;50.032;21.978;2023-04-24T20:42:00;8.23;;;5.33;;
37131;SDS011;23035;50.032;21.978;2023-04-24T20:47:05;7.55;;;5.60;;
37131;SDS011;23035;50.032;21.978;2023-04-24T20:52:10;11.05;;;8.02;;
37131;SDS011;23035;50.032;21.978;2023-04-24T20:57:14;12.45;;;7.80;;
37131;SDS011;23035;50.032;21.978;2023-04-24T21:02:19;9.05;;;5.82;;
37131;SDS011;23035;50.032;21.978;2023-04-24T21:07:24;11.88;;;6.25;;
37131;SDS011;23035;50.032;21.978;2023-04-24T21:12:28;8.65;;;5.70;;
37131;SDS011;23035;50.032;21.978;2023-04-24T21:17:33;10.13;;;5.40;;
37131;SDS011;23035;50.032;21.978;2023-04-24T21:22:37;10.18;;;4.97;;
37131;SDS011;23035;50.032;21.978;2023-04-24T21:27:41;8.98;;;4.57;;
37131;SDS011;23035;50.032;21.978;2023-04-24T21:32:47;5.97;;;4.00;;
37131;SDS011;23035;50.032;21.978;2023-04-24T21:37:51;5.63;;;3.85;;
37131;SDS011;23035;50.032;21.978;2023-04-24T21:42:54;9.07;;;4.60;;
37131;SDS011;23035;50.032;21.978;2023-04-24T21:48:00;7.55;;;4.18;;
37131;SDS011;23035;50.032;21.978;2023-04-24T21:53:04;5.00;;;3.22;;
37131;SDS011;23035;50.032;21.978;2023-04-24T21:58:08;6.55;;;3.40;;
37131;SDS011;23035;50.032;21.978;2023-04-24T22:03:13;6.97;;;4.70;;
37131;SDS011;23035;50.032;21.978;2023-04-24T22:08:18;10.18;;;7.35;;
37131;SDS011;23035;50.032;21.978;2023-04-24T22:13:22;3.88;;;2.90;;
37131;SDS011;23035;50.032;21.978;2023-04-24T22:18:27;20.98;;;12.27;;
37131;SDS011;23035;50.032;21.978;2023-04-24T22:23:48;4.35;;;3.22;;
37131;SDS011;23035;50.032;21.978;2023-04-24T22:28:52;5.18;;;3.83;;
37131;SDS011;23035;50.032;21.978;2023-04-24T22:33:58;5.88;;;4.28;;
37131;SDS011;23035;50.032;21.978;2023-04-24T22:39:02;11.52;;;5.93;;
37131;SDS011;23035;50.032;21.978;2023-04-24T22:44:06;14.00;;;9.60;;
37131;SDS011;23035;50.032;21.978;2023-04-24T22:49:12;19.25;;;11.73;;
37131;SDS011;23035;50.032;21.978;2023-04-24T22:54:16;10.07;;;7.93;;
37131;SDS011;23035;50.032;21.978;2023-04-24T22:59:19;24.40;;;15.90;;
37131;SDS011;23035;50.032;21.978;2023-04-24T23:04:25;17.83;;;13.45;;
37131;SDS011;23035;50.032;21.978;2023-04-24T23:09:30;15.18;;;11.60;;
37131;SDS011;23035;50.032;21.978;2023-04-24T23:14:34;27.17;;;16.63;;
37131;SDS011;23035;50.032;21.978;2023-04-24T23:19:39;19.10;;;14.13;;
37131;SDS011;23035;50.032;21.978;2023-04-24T23:24:43;12.50;;;10.00;;
37131;SDS011;23035;50.032;21.978;2023-04-24T23:29:47;18.50;;;14.00;;
37131;SDS011;23035;50.032;21.978;2023-04-24T23:34:52;25.58;;;19.50;;
37131;SDS011;23035;50.032;21.978;2023-04-24T23:39:57;11.65;;;10.45;;
37131;SDS011;23035;50.032;21.978;2023-04-24T23:45:01;12.02;;;10.88;;
37131;SDS011;23035;50.032;21.978;2023-04-24T23:50:06;13.63;;;12.35;;
